Time;durP1;ratioP1;P1;durP2;ratioP2;P2;SDS_P1;SDS_P2;PMS_P1;PMS_P2;Temp;Humidity;BMP_temperature;BMP_pressure;BME280_temperature;BME280_humidity;BME280_pressure;Samples;Min_cycle;Max_cycle;Signal;HPM_P1;HPM_P2
2023/04/23 00:00:42;;;;;;;10.50;5.43;;;16.10;98.80;;;;;;5109861;28;20019;-44
2023/04/23 00:03:08;;;;;;;8.38;4.72;;;16.10;99.70;;;;;;5109879;28;20094;-44
2023/04/23 00:05:36;;;;;;;6.90;5.32;;;16.10;99.90;;;;;;5110419;28;20135;-45
2023/04/23 00:08:02;;;;;;;8.88;4.70;;;16.00;99.90;;;;;;5110293;28;20092;-44
2023/04/23 00:10:28;;;;;;;7.88;4.80;;;16.00;99.90;;;;;;5091495;28;20059;-45
2023/04/23 00:12:54;;;;;;;7.63;4.97;;;16.00;99.90;;;;;;5109835;28;20059;-48
2023/04/23 00:15:21;;;;;;;6.05;5.03;;;15.90;99.90;;;;;;5110030;28;20076;-44
2023/04/23 00:17:47;;;;;;;6.25;4.72;;;15.80;99.90;;;;;;5109631;28;20011;-45
2023/04/23 00:20:16;;;;;;;5.20;4.68;;;15.80;99.90;;;;;;5106629;28;20027;-44
2023/04/23 00:22:42;;;;;;;7.78;4.90;;;15.80;99.90;;;;;;5109311;27;20407;-45
2023/04/23 00:25:09;;;;;;;6.32;5.07;;;15.80;99.90;;;;;;5109953;27;20035;-47
2023/04/23 00:27:35;;;;;;;8.48;5.03;;;15.80;99.90;;;;;;5109182;28;20027;-48
2023/04/23 00:30:02;;;;;;;8.38;5.30;;;15.80;99.90;;;;;;5109017;28;20024;-45
2023/04/23 00:32:27;;;;;;;10.75;5.00;;;15.70;99.90;;;;;;5108712;28;20023;-44
2023/04/23 00:34:54;;;;;;;9.32;5.80;;;15.80;99.90;;;;;;5106813;28;20528;-44
2023/04/23 00:37:19;;;;;;;7.50;5.07;;;15.70;99.90;;;;;;5109648;28;20027;-44
2023/04/23 00:39:45;;;;;;;10.48;6.20;;;15.70;99.90;;;;;;5109527;28;20016;-47
2023/04/23 00:42:11;;;;;;;11.77;6.03;;;15.60;99.90;;;;;;5109468;28;20030;-44
2023/04/23 00:44:40;;;;;;;8.15;4.85;;;15.60;99.90;;;;;;5109499;28;20030;-44
2023/04/23 00:47:06;;;;;;;7.05;5.65;;;15.60;99.90;;;;;;5109658;28;20019;-44
2023/04/23 00:49:36;;;;;;;7.47;5.30;;;15.50;99.90;;;;;;5109553;28;20104;-44
2023/04/23 00:52:02;;;;;;;6.90;5.03;;;15.60;99.90;;;;;;5109182;28;20021;-45
2023/04/23 00:54:28;;;;;;;6.40;5.18;;;15.50;99.90;;;;;;5109358;28;20035;-47
2023/04/23 00:56:54;;;;;;;7.78;5.30;;;15.50;99.90;;;;;;5109210;28;20019;-44
2023/04/23 00:59:20;;;;;;;5.10;4.07;;;15.50;99.90;;;;;;5109262;28;20118;-44
2023/04/23 01:01:46;;;;;;;5.43;4.60;;;15.50;99.90;;;;;;5109390;28;20011;-47
2023/04/23 01:04:15;;;;;;;5.88;5.25;;;15.50;99.90;;;;;;5109295;28;20065;-45
2023/04/23 01:06:41;;;;;;;7.68;5.80;;;15.40;99.90;;;;;;5090860;28;20062;-46
2023/04/23 01:09:08;;;;;;;5.32;4.63;;;15.40;99.90;;;;;;5109038;28;20289;-44
2023/04/23 01:11:37;;;;;;;10.20;6.38;;;15.40;99.90;;;;;;5106332;28;20057;-45
2023/04/23 01:14:03;;;;;;;6.35;5.13;;;15.40;99.90;;;;;;5108651;28;20081;-45
2023/04/23 01:16:29;;;;;;;9.30;5.40;;;15.40;99.90;;;;;;5108891;28;20452;-45
2023/04/23 01:18:55;;;;;;;8.38;6.00;;;15.30;99.90;;;;;;5109125;28;20468;-44
2023/04/23 01:21:21;;;;;;;8.50;5.05;;;15.40;99.90;;;;;;5108952;28;20024;-45
2023/04/23 01:23:47;;;;;;;9.05;5.38;;;15.40;99.90;;;;;;5108857;28;20496;-44
2023/04/23 01:26:13;;;;;;;8.52;5.95;;;15.40;99.90;;;;;;5109253;27;20098;-46
2023/04/23 01:28:40;;;;;;;7.40;4.97;;;15.30;99.90;;;;;;5108168;28;20016;-44
2023/04/23 01:31:06;;;;;;;7.70;5.57;;;15.40;99.90;;;;;;5108845;28;20019;-45
2023/04/23 01:33:33;;;;;;;9.65;5.82;;;15.40;99.90;;;;;;5109038;28;20012;-46
2023/04/23 01:35:59;;;;;;;8.35;6.10;;;15.40;99.90;;;;;;5108665;28;20384;-44
2023/04/23 01:38:29;;;;;;;7.68;6.07;;;15.30;99.90;;;;;;5089948;28;20476;-44
2023/04/23 01:40:55;;;;;;;8.20;5.65;;;15.30;99.90;;;;;;5087470;28;20035;-45
2023/04/23 01:43:21;;;;;;;8.02;5.70;;;15.30;99.90;;;;;;5108072;28;20027;-48
2023/04/23 01:45:47;;;;;;;7.30;5.25;;;15.30;99.90;;;;;;5107684;28;20042;-45
2023/04/23 01:48:13;;;;;;;6.93;5.32;;;15.30;99.90;;;;;;5107724;28;20489;-44
2023/04/23 01:50:39;;;;;;;6.97;4.97;;;15.30;99.90;;;;;;5107801;28;20031;-46
2023/04/23 01:53:05;;;;;;;7.28;5.00;;;15.30;99.90;;;;;;5107841;28;20016;-44
2023/04/23 01:55:31;;;;;;;15.95;7.45;;;15.30;99.90;;;;;;5089782;27;20402;-46
2023/04/23 01:57:56;;;;;;;7.63;5.43;;;15.30;99.90;;;;;;5106966;28;20476;-44
2023/04/23 02:00:22;;;;;;;7.43;6.15;;;15.30;99.90;;;;;;5107743;28;20026;-44
2023/04/23 02:02:47;;;;;;;11.25;6.85;;;15.30;99.90;;;;;;5107864;28;20419;-45
2023/04/23 02:05:18;;;;;;;8.60;6.13;;;15.30;99.90;;;;;;5107396;28;20453;-46
2023/04/23 02:07:45;;;;;;;6.68;5.78;;;15.30;99.90;;;;;;5107286;28;20484;-45
2023/04/23 02:10:11;;;;;;;8.25;6.30;;;15.30;99.90;;;;;;5107272;28;20034;-46
2023/04/23 02:12:37;;;;;;;8.70;6.05;;;15.40;99.90;;;;;;5100279;28;20288;-46
2023/04/23 02:15:05;;;;;;;7.63;6.20;;;15.30;99.90;;;;;;5105210;28;20102;-45
2023/04/23 02:17:31;;;;;;;8.70;6.38;;;15.30;99.90;;;;;;5108220;28;20083;-45
2023/04/23 02:19:56;;;;;;;8.63;5.97;;;15.30;99.90;;;;;;5107116;28;20064;-44
2023/04/23 02:22:24;;;;;;;11.98;6.90;;;15.40;99.90;;;;;;5107026;28;20027;-46
2023/04/23 02:24:50;;;;;;;9.63;7.45;;;15.30;99.90;;;;;;5106892;28;20031;-44
2023/04/23 02:27:16;;;;;;;8.35;6.20;;;15.30;99.90;;;;;;5107121;27;20027;-45
2023/04/23 02:29:41;;;;;;;7.30;5.70;;;15.30;99.90;;;;;;5106887;28;20072;-45
2023/04/23 02:32:07;;;;;;;9.80;6.32;;;15.30;99.90;;;;;;5106781;28;20029;-45
2023/04/23 02:34:32;;;;;;;9.13;7.63;;;15.30;99.90;;;;;;5107437;28;20080;-45
2023/04/23 02:36:58;;;;;;;9.02;7.28;;;15.30;99.90;;;;;;5107317;28;20022;-44
2023/04/23 02:39:23;;;;;;;8.82;6.93;;;15.20;99.90;;;;;;5107518;28;20099;-44
2023/04/23 02:41:49;;;;;;;9.13;7.18;;;15.20;99.90;;;;;;5106975;28;20098;-45
2023/04/23 02:44:15;;;;;;;8.75;7.05;;;15.10;99.90;;;;;;5107242;28;20043;-44
2023/04/23 02:46:40;;;;;;;8.57;7.68;;;15.10;99.90;;;;;;5107627;28;20028;-44
2023/04/23 02:49:06;;;;;;;10.00;7.43;;;15.10;99.90;;;;;;5088990;28;20035;-45
2023/04/23 02:51:31;;;;;;;11.75;8.63;;;15.00;99.90;;;;;;5106952;28;20026;-47
2023/04/23 02:53:58;;;;;;;11.48;9.00;;;15.00;99.90;;;;;;5107464;28;20031;-44
2023/04/23 02:56:23;;;;;;;10.15;8.50;;;14.90;99.90;;;;;;5110611;27;20069;-44
2023/04/23 02:58:49;;;;;;;14.32;9.25;;;14.90;99.90;;;;;;5110477;28;20032;-44
2023/04/23 03:01:15;;;;;;;10.40;8.57;;;14.90;99.90;;;;;;5111341;28;20568;-44
2023/04/23 03:03:41;;;;;;;14.32;9.27;;;14.80;99.90;;;;;;5111167;28;20528;-44
2023/04/23 03:06:07;;;;;;;13.75;9.30;;;14.80;99.90;;;;;;5111067;28;20039;-47
2023/04/23 03:08:33;;;;;;;13.00;9.18;;;14.70;99.90;;;;;;5110635;28;20181;-44
2023/04/23 03:10:58;;;;;;;16.05;10.23;;;14.70;99.90;;;;;;5110230;28;20020;-44
2023/04/23 03:13:25;;;;;;;13.10;9.88;;;14.70;99.90;;;;;;5110331;28;20020;-44
2023/04/23 03:15:51;;;;;;;13.40;9.63;;;14.50;99.90;;;;;;5110836;28;20028;-44
2023/04/23 03:18:17;;;;;;;13.45;9.90;;;14.30;99.90;;;;;;5110411;28;20028;-47
2023/04/23 03:20:43;;;;;;;17.00;9.90;;;14.30;99.90;;;;;;5109884;28;20030;-44
2023/04/23 03:23:08;;;;;;;9.73;8.35;;;14.20;99.90;;;;;;5109861;28;20036;-45
2023/04/23 03:25:34;;;;;;;13.43;9.02;;;14.20;99.90;;;;;;5110946;27;20088;-45
2023/04/23 03:28:00;;;;;;;13.20;9.85;;;14.10;99.90;;;;;;5109213;28;20030;-44
2023/04/23 03:30:26;;;;;;;17.10;9.80;;;14.00;99.90;;;;;;5109801;28;20066;-44
2023/04/23 03:32:55;;;;;;;14.85;9.82;;;14.00;99.90;;;;;;5110354;28;20059;-44
2023/04/23 03:35:20;;;;;;;26.83;17.17;;;13.90;99.90;;;;;;5109418;28;20031;-43
2023/04/23 03:37:46;;;;;;;25.13;17.92;;;13.70;99.90;;;;;;5110083;28;20020;-45
2023/04/23 03:40:11;;;;;;;27.65;20.08;;;13.50;99.90;;;;;;5109640;28;20027;-46
2023/04/23 03:42:37;;;;;;;31.88;22.10;;;13.40;99.90;;;;;;5106958;28;20381;-45
2023/04/23 03:45:03;;;;;;;35.47;23.05;;;13.30;99.90;;;;;;5109877;28;20023;-45
2023/04/23 03:47:29;;;;;;;37.42;24.10;;;13.20;99.90;;;;;;5109852;28;20022;-45
2023/04/23 03:49:56;;;;;;;37.88;24.67;;;13.10;99.90;;;;;;5109547;28;20011;-44
2023/04/23 03:52:21;;;;;;;32.00;22.60;;;13.10;99.90;;;;;;5109398;28;20028;-45
2023/04/23 03:54:47;;;;;;;38.40;25.42;;;13.00;99.90;;;;;;5109686;28;20107;-44
2023/04/23 03:57:13;;;;;;;40.22;25.27;;;13.00;99.90;;;;;;5110611;27;20461;-44
2023/04/23 03:59:38;;;;;;;36.90;24.30;;;13.00;99.90;;;;;;5109508;28;20023;-44
2023/04/23 04:02:04;;;;;;;39.42;24.77;;;12.80;99.90;;;;;;5109562;28;20064;-44
2023/04/23 04:04:30;;;;;;;36.33;24.10;;;12.90;99.90;;;;;;5109637;28;20024;-44
2023/04/23 04:06:56;;;;;;;37.50;24.50;;;12.80;99.90;;;;;;5108180;28;20031;-45
2023/04/23 04:09:22;;;;;;;37.00;24.63;;;12.80;99.90;;;;;;5109337;28;20027;-44
2023/04/23 04:11:48;;;;;;;39.67;25.42;;;12.80;99.90;;;;;;5109416;28;20028;-44
2023/04/23 04:14:13;;;;;;;37.60;24.60;;;12.80;99.90;;;;;;5109024;28;20416;-44
2023/04/23 04:16:39;;;;;;;37.70;25.55;;;12.80;99.90;;;;;;5109551;28;20043;-44
2023/04/23 04:19:06;;;;;;;39.80;26.35;;;12.80;99.90;;;;;;5109162;28;20023;-44
2023/04/23 04:21:33;;;;;;;41.90;27.55;;;12.80;99.90;;;;;;5109292;28;20022;-45
2023/04/23 04:24:03;;;;;;;42.33;27.60;;;12.80;99.90;;;;;;5109370;28;20027;-45
2023/04/23 04:26:31;;;;;;;38.13;25.40;;;12.70;99.90;;;;;;5110044;27;20019;-44
2023/04/23 04:28:58;;;;;;;41.65;26.90;;;12.70;99.90;;;;;;5105834;28;20058;-45
2023/04/23 04:31:24;;;;;;;46.83;29.67;;;12.70;99.90;;;;;;5106596;28;20439;-44
2023/04/23 04:33:50;;;;;;;55.42;32.80;;;12.70;99.90;;;;;;5091332;28;20086;-44
2023/04/23 04:36:15;;;;;;;48.17;30.88;;;12.60;99.90;;;;;;5109498;28;20028;-47
2023/04/23 04:38:41;;;;;;;52.40;33.33;;;12.60;99.90;;;;;;5109563;28;20615;-45
2023/04/23 04:41:06;;;;;;;45.75;30.15;;;12.60;99.90;;;;;;5109497;28;20363;-44
2023/04/23 04:43:33;;;;;;;49.85;29.45;;;12.60;99.90;;;;;;5109360;28;20026;-45
2023/04/23 04:45:59;;;;;;;56.50;32.85;;;12.60;99.90;;;;;;5109442;28;20035;-44
2023/04/23 04:48:25;;;;;;;50.47;32.13;;;12.60;99.90;;;;;;5109654;28;20016;-44
2023/04/23 04:50:51;;;;;;;51.08;30.67;;;12.60;99.90;;;;;;5109345;28;20176;-43
2023/04/23 04:53:16;;;;;;;51.53;32.15;;;12.60;99.90;;;;;;5108975;28;20030;-44
2023/04/23 04:55:42;;;;;;;53.28;33.47;;;12.60;99.90;;;;;;5110851;27;20023;-44
2023/04/23 04:58:08;;;;;;;49.60;31.05;;;12.60;99.90;;;;;;5109010;28;20784;-45
2023/04/23 05:00:33;;;;;;;53.05;33.30;;;12.60;99.90;;;;;;5090374;28;20480;-44
2023/04/23 05:02:59;;;;;;;55.28;33.15;;;12.70;99.90;;;;;;5109123;28;20027;-44
2023/04/23 05:05:26;;;;;;;52.63;32.42;;;12.70;99.90;;;;;;5109255;28;20190;-43
2023/04/23 05:07:58;;;;;;;49.67;31.63;;;12.70;99.90;;;;;;5090558;28;20077;-45
2023/04/23 05:10:24;;;;;;;50.10;31.50;;;12.70;99.90;;;;;;5106385;28;20016;-44
2023/04/23 05:12:50;;;;;;;58.20;35.55;;;12.70;99.90;;;;;;5108171;28;20112;-45
2023/04/23 05:15:16;;;;;;;49.92;31.23;;;12.60;99.90;;;;;;5090299;28;20061;-46
2023/04/23 05:17:42;;;;;;;52.42;31.75;;;12.60;99.90;;;;;;5108121;28;20116;-46
2023/04/23 05:20:11;;;;;;;54.35;33.80;;;12.60;99.90;;;;;;5108382;28;20653;-44
2023/04/23 05:22:41;;;;;;;50.60;32.80;;;12.60;99.90;;;;;;5090033;28;20031;-44
2023/04/23 05:25:08;;;;;;;53.30;33.78;;;12.70;99.90;;;;;;5108980;28;20028;-46
2023/04/23 05:27:34;;;;;;;56.17;35.05;;;12.70;99.90;;;;;;5109252;27;20024;-44
2023/04/23 05:30:02;;;;;;;59.08;36.47;;;12.60;99.90;;;;;;5108038;28;20012;-46
2023/04/23 05:32:28;;;;;;;53.88;34.60;;;12.60;99.90;;;;;;5107962;28;20024;-44
2023/04/23 05:34:54;;;;;;;53.72;34.58;;;12.60;99.90;;;;;;5108591;28;20015;-44
2023/04/23 05:37:19;;;;;;;53.28;34.05;;;12.50;99.90;;;;;;5108968;28;20111;-46
2023/04/23 05:39:45;;;;;;;55.97;34.88;;;12.60;99.90;;;;;;5108395;28;20047;-45
2023/04/23 05:42:12;;;;;;;57.20;36.40;;;12.60;99.90;;;;;;5108218;28;20122;-45
2023/04/23 05:44:37;;;;;;;56.17;34.67;;;12.60;99.90;;;;;;5108079;28;20180;-44
2023/04/23 05:47:03;;;;;;;48.22;32.65;;;12.60;99.90;;;;;;5089935;28;20114;-45
2023/04/23 05:49:29;;;;;;;57.78;36.60;;;12.60;99.90;;;;;;5107834;28;20414;-45
2023/04/23 05:51:54;;;;;;;52.88;33.63;;;12.60;99.90;;;;;;5107830;28;20024;-44
2023/04/23 05:54:20;;;;;;;52.45;34.90;;;12.60;99.90;;;;;;5089788;28;20034;-45
2023/04/23 05:56:46;;;;;;;55.95;37.20;;;12.70;99.90;;;;;;5108372;28;20034;-48
2023/04/23 05:59:11;;;;;;;49.53;32.05;;;12.60;99.90;;;;;;5107239;28;20031;-44
2023/04/23 06:01:37;;;;;;;52.25;32.40;;;12.70;99.90;;;;;;5088741;28;20070;-46
2023/04/23 06:04:02;;;;;;;51.75;35.08;;;12.70;99.90;;;;;;5107213;27;20034;-44
2023/04/23 06:06:28;;;;;;;52.10;34.00;;;12.70;99.90;;;;;;5090150;28;20038;-44
2023/04/23 06:08:53;;;;;;;53.10;33.22;;;12.70;99.90;;;;;;5088635;28;20027;-44
2023/04/23 06:11:20;;;;;;;54.08;34.75;;;12.70;99.90;;;;;;5106898;28;20381;-47
2023/04/23 06:13:45;;;;;;;53.28;35.97;;;12.70;99.90;;;;;;5107342;28;20060;-44
2023/04/23 06:16:11;;;;;;;54.75;35.65;;;12.70;99.90;;;;;;5107395;28;20035;-45
2023/04/23 06:18:38;;;;;;;56.15;34.60;;;12.70;99.90;;;;;;5111933;27;20031;-44
2023/04/23 06:21:04;;;;;;;56.70;36.30;;;12.70;99.90;;;;;;5105500;28;20031;-44
2023/04/23 06:23:31;;;;;;;59.17;35.15;;;12.60;99.90;;;;;;5107016;28;20031;-44
2023/04/23 06:25:56;;;;;;;54.33;33.50;;;12.60;99.90;;;;;;5105788;27;20031;-43
2023/04/23 06:28:22;;;;;;;58.40;37.10;;;12.70;99.90;;;;;;5106807;28;20489;-44
2023/04/23 06:30:48;;;;;;;48.38;33.22;;;12.70;99.90;;;;;;5109024;27;20043;-44
2023/04/23 06:33:13;;;;;;;56.53;34.78;;;12.70;99.90;;;;;;5107334;28;20373;-44
2023/04/23 06:35:39;;;;;;;53.75;34.58;;;12.70;99.90;;;;;;5107398;28;20047;-46
2023/04/23 06:38:05;;;;;;;48.92;31.70;;;12.60;99.90;;;;;;5107094;28;20019;-44
2023/04/23 06:40:31;;;;;;;52.15;33.92;;;12.50;99.90;;;;;;5107119;28;20042;-44
2023/04/23 06:42:57;;;;;;;49.10;31.38;;;12.50;99.90;;;;;;5104444;28;20051;-44
2023/04/23 06:45:22;;;;;;;49.33;31.20;;;12.60;99.90;;;;;;5107408;28;20452;-44
2023/04/23 06:47:48;;;;;;;48.05;31.27;;;12.60;99.90;;;;;;5107109;28;20027;-45
2023/04/23 06:50:14;;;;;;;45.55;29.83;;;12.50;99.90;;;;;;5107484;28;20019;-44
2023/04/23 06:52:40;;;;;;;46.60;28.20;;;12.40;99.90;;;;;;5107307;28;20430;-44
2023/04/23 06:55:06;;;;;;;47.95;29.60;;;12.50;99.90;;;;;;5107381;28;20023;-45
2023/04/23 06:57:32;;;;;;;43.13;28.40;;;12.40;99.90;;;;;;5107055;28;20024;-44
2023/04/23 06:59:58;;;;;;;47.53;28.05;;;12.30;99.90;;;;;;5106486;28;20507;-45
2023/04/23 07:02:23;;;;;;;47.63;29.80;;;12.30;99.90;;;;;;5107931;28;21008;-44
2023/04/23 07:04:49;;;;;;;49.90;30.23;;;12.30;99.90;;;;;;5106680;28;20016;-45
2023/04/23 07:07:15;;;;;;;48.10;29.77;;;12.20;99.90;;;;;;5107356;28;20031;-44
2023/04/23 07:09:40;;;;;;;46.42;28.17;;;12.20;99.90;;;;;;5105656;28;20384;-43
2023/04/23 07:12:06;;;;;;;38.25;25.55;;;12.30;99.90;;;;;;5106017;28;20093;-44
2023/04/23 07:14:32;;;;;;;39.17;25.33;;;12.20;99.90;;;;;;5106265;28;20523;-45
2023/04/23 07:16:58;;;;;;;41.00;26.25;;;12.20;99.90;;;;;;5103689;28;20027;-45
2023/04/23 07:19:23;;;;;;;38.17;24.05;;;12.20;99.90;;;;;;5106439;28;20016;-46
2023/04/23 07:21:49;;;;;;;33.65;22.08;;;12.20;99.90;;;;;;5106151;28;20027;-44
2023/04/23 07:24:15;;;;;;;32.83;21.52;;;12.30;99.90;;;;;;5106345;28;20110;-45
2023/04/23 07:26:41;;;;;;;35.33;22.65;;;12.30;99.90;;;;;;5106508;28;20103;-44
2023/04/23 07:29:09;;;;;;;35.00;22.90;;;12.30;99.90;;;;;;5105979;28;20427;-44
2023/04/23 07:31:35;;;;;;;30.98;21.33;;;12.30;99.90;;;;;;5106037;28;20042;-46
2023/04/23 07:34:01;;;;;;;37.33;20.55;;;12.20;99.90;;;;;;5106670;28;20020;-44
2023/04/23 07:36:26;;;;;;;34.50;22.45;;;12.20;99.90;;;;;;5106166;28;20035;-46
2023/04/23 07:38:52;;;;;;;35.08;21.90;;;12.20;99.90;;;;;;5106545;28;20023;-44
2023/04/23 07:41:17;;;;;;;34.08;21.17;;;12.20;99.90;;;;;;5089315;28;20059;-44
2023/04/23 07:43:43;;;;;;;28.60;19.70;;;12.10;99.90;;;;;;5109427;28;20023;-44
2023/04/23 07:46:08;;;;;;;32.03;19.50;;;12.20;99.90;;;;;;5109660;27;20035;-46
2023/04/23 07:48:34;;;;;;;29.25;20.55;;;12.30;99.90;;;;;;5110005;28;20152;-46
2023/04/23 07:51:00;;;;;;;29.17;19.83;;;12.40;99.90;;;;;;5091849;28;20524;-46
2023/04/23 07:53:27;;;;;;;29.25;19.83;;;12.50;99.90;;;;;;5110511;28;20042;-46
2023/04/23 07:55:56;;;;;;;30.02;20.40;;;12.80;99.90;;;;;;5110851;28;20020;-44
2023/04/23 07:58:23;;;;;;;32.17;21.02;;;12.90;99.90;;;;;;5109622;28;20020;-44
2023/04/23 08:00:49;;;;;;;24.77;18.35;;;13.00;99.90;;;;;;5109901;28;20019;-44
2023/04/23 08:03:15;;;;;;;29.48;19.92;;;13.20;99.90;;;;;;5109441;27;20024;-45
2023/04/23 08:05:40;;;;;;;24.05;16.38;;;13.40;99.90;;;;;;5109815;28;20057;-45
2023/04/23 08:08:07;;;;;;;22.63;16.25;;;13.50;99.90;;;;;;5091154;28;20027;-44
2023/04/23 08:10:33;;;;;;;21.98;15.23;;;13.60;99.90;;;;;;5109673;28;20271;-44
2023/04/23 08:12:59;;;;;;;24.88;16.73;;;13.70;99.90;;;;;;5110544;27;20536;-45
2023/04/23 08:15:25;;;;;;;26.15;16.27;;;13.80;99.90;;;;;;5109249;28;20421;-45
2023/04/23 08:17:51;;;;;;;22.90;15.68;;;13.80;99.90;;;;;;5091129;28;20026;-44
2023/04/23 08:20:17;;;;;;;22.35;14.98;;;13.70;99.90;;;;;;5109961;28;20027;-44
2023/04/23 08:22:42;;;;;;;18.73;13.32;;;13.90;99.90;;;;;;5109466;28;20034;-45
2023/04/23 08:25:08;;;;;;;21.45;14.90;;;14.60;99.90;;;;;;5110405;28;20020;-44
2023/04/23 08:27:34;;;;;;;19.17;14.77;;;15.10;99.90;;;;;;5109664;28;20505;-45
2023/04/23 08:29:59;;;;;;;18.55;14.27;;;15.90;99.90;;;;;;5091460;28;20034;-46
2023/04/23 08:32:26;;;;;;;15.23;11.50;;;16.40;99.90;;;;;;5112664;27;20020;-46
2023/04/23 08:34:52;;;;;;;19.33;14.75;;;16.60;99.90;;;;;;5109119;28;20019;-45
2023/04/23 08:37:17;;;;;;;16.17;13.32;;;16.60;99.90;;;;;;5111253;27;20137;-45
2023/04/23 08:39:43;;;;;;;17.90;13.20;;;16.50;99.90;;;;;;5108697;28;20304;-45
2023/04/23 08:42:46;;;;;;;20.02;14.05;;;16.10;99.90;;;;;;5108737;28;20052;-45
2023/04/23 08:45:12;;;;;;;18.40;13.88;;;16.00;99.90;;;;;;5089897;28;20030;-45
2023/04/23 08:47:43;;;;;;;17.95;13.40;;;16.30;99.90;;;;;;5109896;27;20194;-45
2023/04/23 08:50:11;;;;;;;17.83;13.13;;;17.30;99.90;;;;;;5108484;28;20079;-46
2023/04/23 08:52:44;;;;;;;19.77;15.50;;;18.50;99.90;;;;;;5107917;28;20432;-45
2023/04/23 08:55:09;;;;;;;15.43;12.18;;;19.70;94.90;;;;;;5108670;28;20024;-45
2023/04/23 08:57:38;;;;;;;16.30;14.43;;;20.30;97.10;;;;;;5090113;28;20028;-45
2023/04/23 09:00:05;;;;;;;12.13;10.57;;;20.50;96.10;;;;;;5108947;28;20026;-45
2023/04/23 09:02:32;;;;;;;12.40;11.05;;;21.90;92.60;;;;;;5108513;28;20020;-45
2023/04/23 09:04:58;;;;;;;9.65;8.45;;;22.80;84.60;;;;;;5109099;28;20162;-45
2023/04/23 09:07:24;;;;;;;11.85;10.65;;;23.40;79.70;;;;;;5109085;28;20556;-45
2023/04/23 09:09:50;;;;;;;11.07;9.98;;;23.70;73.80;;;;;;5108836;28;20050;-45
2023/04/23 09:12:15;;;;;;;13.85;12.40;;;23.80;74.10;;;;;;5090555;28;20473;-45
2023/04/23 09:14:41;;;;;;;14.30;12.55;;;23.80;75.90;;;;;;5109823;28;20107;-44
2023/04/23 09:17:06;;;;;;;16.08;13.70;;;23.50;73.10;;;;;;5108903;27;20313;-45
2023/04/23 09:19:32;;;;;;;15.75;13.02;;;23.30;73.70;;;;;;5109587;27;20477;-45
2023/04/23 09:22:00;;;;;;;13.77;12.35;;;23.50;73.60;;;;;;5107503;28;20027;-45
2023/04/23 09:24:26;;;;;;;14.00;11.75;;;23.60;75.70;;;;;;5107922;28;20024;-45
2023/04/23 09:26:53;;;;;;;11.00;9.80;;;23.20;76.20;;;;;;5108144;28;20034;-45
2023/04/23 09:29:22;;;;;;;15.00;13.00;;;23.00;77.80;;;;;;5089337;28;20488;-45
2023/04/23 09:31:50;;;;;;;14.15;12.65;;;22.90;76.70;;;;;;5107488;28;20036;-46
2023/04/23 09:34:21;;;;;;;13.45;11.88;;;22.30;76.20;;;;;;5108389;28;20582;-45
2023/04/23 09:36:52;;;;;;;13.43;11.60;;;22.30;77.20;;;;;;5108642;28;20066;-45
2023/04/23 09:39:20;;;;;;;15.65;13.85;;;22.50;79.70;;;;;;5107453;28;20035;-45
2023/04/23 09:41:46;;;;;;;12.73;11.43;;;23.00;79.50;;;;;;5108696;28;20027;-45
2023/04/23 09:44:16;;;;;;;17.48;14.10;;;24.00;78.50;;;;;;5107791;28;20023;-45
2023/04/23 09:46:42;;;;;;;11.60;10.40;;;25.60;69.30;;;;;;5108027;28;20452;-45
2023/04/23 09:49:10;;;;;;;9.55;8.63;;;25.90;72.20;;;;;;5110713;27;20107;-48
2023/04/23 09:51:39;;;;;;;12.57;11.10;;;26.10;71.50;;;;;;5126601;27;20027;-46
2023/04/23 09:54:13;;;;;;;9.45;8.25;;;25.60;68.90;;;;;;5118884;27;20050;-47
2023/04/23 09:56:40;;;;;;;11.52;10.23;;;26.40;68.90;;;;;;5107431;28;20419;-45
2023/04/23 09:59:19;;;;;;;11.38;10.27;;;26.70;68.60;;;;;;5088801;28;20317;-47
2023/04/23 10:01:45;;;;;;;9.85;8.90;;;27.20;63.20;;;;;;5107827;28;20028;-47
2023/04/23 10:04:22;;;;;;;9.07;8.18;;;26.10;63.10;;;;;;5107238;28;20020;-45
2023/04/23 10:06:53;;;;;;;10.82;8.57;;;26.60;64.40;;;;;;5107495;28;20438;-47
2023/04/23 10:09:23;;;;;;;8.48;7.65;;;27.20;62.90;;;;;;5107652;28;20320;-47
2023/04/23 10:11:51;;;;;;;10.27;9.27;;;27.00;65.70;;;;;;5089349;28;20504;-45
2023/04/23 10:14:19;;;;;;;11.02;9.93;;;27.00;61.20;;;;;;5107583;28;20566;-45
2023/04/23 10:16:46;;;;;;;11.85;10.60;;;27.00;60.60;;;;;;5106542;28;20365;-39
2023/04/23 10:19:14;;;;;;;10.32;9.23;;;27.10;63.20;;;;;;5109393;27;20069;-40
2023/04/23 10:21:40;;;;;;;11.20;9.80;;;28.10;60.10;;;;;;5088514;28;20024;-40
2023/04/23 10:24:10;;;;;;;8.38;7.50;;;28.50;56.90;;;;;;5107147;28;20039;-40
2023/04/23 10:26:40;;;;;;;8.00;7.20;;;28.40;59.70;;;;;;5107252;28;20047;-40
2023/04/23 10:29:12;;;;;;;6.90;6.18;;;28.50;56.60;;;;;;5107097;28;20519;-40
2023/04/23 10:31:38;;;;;;;6.38;5.78;;;28.90;59.10;;;;;;5106932;28;20088;-40
2023/04/23 10:34:05;;;;;;;5.78;5.22;;;28.90;57.20;;;;;;5106182;28;20047;-40
2023/04/23 10:36:32;;;;;;;9.13;8.18;;;29.30;58.10;;;;;;5106968;28;20031;-40
2023/04/23 10:39:02;;;;;;;9.13;8.23;;;29.40;52.90;;;;;;5106730;28;20227;-39
2023/04/23 10:41:35;;;;;;;7.18;6.47;;;28.90;53.90;;;;;;5088633;28;20028;-39
2023/04/23 10:44:04;;;;;;;5.72;5.07;;;28.70;56.50;;;;;;5107472;28;20043;-39
2023/04/23 10:46:31;;;;;;;5.57;4.97;;;29.10;56.70;;;;;;5107283;28;20031;-39
2023/04/23 10:49:14;;;;;;;7.95;5.60;;;29.90;53.20;;;;;;5109675;28;20042;-39
2023/04/23 10:51:41;;;;;;;8.23;7.43;;;30.20;51.30;;;;;;5106878;28;20027;-39
2023/04/23 10:54:11;;;;;;;5.45;4.95;;;28.90;55.70;;;;;;5107294;28;20031;-40
2023/04/23 10:56:38;;;;;;;5.03;4.53;;;28.60;56.50;;;;;;5106414;28;20031;-39
2023/04/23 10:59:19;;;;;;;4.93;4.40;;;29.40;51.90;;;;;;5106697;28;20440;-39
2023/04/23 11:01:47;;;;;;;5.20;4.68;;;29.70;53.60;;;;;;5106841;28;20016;-40
2023/04/23 11:04:22;;;;;;;5.93;5.43;;;30.00;52.40;;;;;;5107166;28;20030;-40
2023/04/23 11:06:48;;;;;;;5.47;5.00;;;30.10;51.90;;;;;;5107108;28;20072;-40
2023/04/23 11:09:43;;;;;;;8.55;6.32;;;29.30;52.50;;;;;;5106779;28;20059;-40
2023/04/23 11:12:12;;;;;;;5.40;4.90;;;29.20;49.40;;;;;;5106611;28;20534;-40
2023/04/23 11:14:44;;;;;;;;;;;27.70;55.90;;;;;;5107390;28;20404;-40
2023/04/23 11:17:17;;;;;;;8.35;6.30;;;27.80;53.30;;;;;;5109806;27;19935;-40
2023/04/23 11:20:02;;;;;;;5.20;4.68;;;28.60;51.50;;;;;;5111526;27;20058;-40
2023/04/23 11:22:35;;;;;;;6.55;5.95;;;30.20;50.20;;;;;;5110921;28;20024;-41
2023/04/23 11:25:01;;;;;;;6.50;5.90;;;30.10;52.30;;;;;;5111319;28;20465;-40
2023/04/23 11:27:29;;;;;;;5.55;4.00;;;30.40;52.60;;;;;;5117696;27;20473;-41
2023/04/23 11:29:54;;;;;;;6.28;4.72;;;30.40;51.70;;;;;;5110474;28;20023;-41
2023/04/23 11:32:20;;;;;;;6.78;5.68;;;30.10;52.70;;;;;;5112734;27;20019;-41
2023/04/23 11:34:49;;;;;;;5.05;4.38;;;30.20;51.10;;;;;;5111006;27;20027;-42
2023/04/23 11:37:16;;;;;;;5.03;4.53;;;29.90;53.70;;;;;;5110286;28;20023;-40
2023/04/23 11:39:50;;;;;;;5.15;4.65;;;30.30;51.40;;;;;;5110643;28;20447;-41
2023/04/23 11:42:18;;;;;;;5.82;4.60;;;30.30;50.70;;;;;;5091659;28;20377;-41
2023/04/23 11:44:46;;;;;;;6.03;5.43;;;29.80;52.40;;;;;;5110428;28;20016;-40
2023/04/23 11:47:13;;;;;;;6.15;5.55;;;27.80;51.40;;;;;;5110273;28;20111;-40
2023/04/23 11:49:41;;;;;;;6.68;5.47;;;27.30;53.00;;;;;;5110514;28;20027;-40
2023/04/23 11:52:07;;;;;;;7.57;4.75;;;27.50;57.40;;;;;;5091694;28;20514;-40
2023/04/23 11:54:33;;;;;;;5.63;4.53;;;27.90;54.10;;;;;;5110126;28;20027;-40
2023/04/23 11:57:00;;;;;;;7.03;4.60;;;27.90;52.30;;;;;;5109784;28;20103;-40
2023/04/23 11:59:25;;;;;;;5.38;4.88;;;28.00;55.40;;;;;;5110282;28;20394;-40
2023/04/23 12:01:54;;;;;;;7.15;5.85;;;28.50;54.00;;;;;;5110238;28;20023;-40
2023/04/23 12:04:28;;;;;;;7.72;6.13;;;28.50;54.70;;;;;;5113663;27;20572;-40
2023/04/23 12:06:55;;;;;;;6.10;5.50;;;27.50;51.70;;;;;;5110191;28;20296;-40
2023/04/23 12:09:23;;;;;;;7.57;5.95;;;27.50;58.10;;;;;;5109954;28;20023;-37
2023/04/23 12:11:50;;;;;;;6.60;5.90;;;26.60;53.50;;;;;;5109431;28;20032;-39
2023/04/23 12:14:17;;;;;;;6.82;5.22;;;25.30;57.90;;;;;;5109972;28;20035;-38
2023/04/23 12:16:43;;;;;;;7.63;5.60;;;25.00;57.70;;;;;;5109610;28;20039;-38
2023/04/23 12:19:13;;;;;;;9.50;7.25;;;25.10;56.40;;;;;;5109456;28;20399;-38
2023/04/23 12:21:50;;;;;;;8.88;6.30;;;24.90;54.50;;;;;;5109303;28;20102;-38
2023/04/23 12:24:16;;;;;;;7.30;5.85;;;23.60;57.60;;;;;;5109839;28;20179;-38
2023/04/23 12:26:43;;;;;;;13.25;8.95;;;23.40;58.20;;;;;;5109381;28;20056;-38
2023/04/23 12:29:11;;;;;;;9.40;6.18;;;22.10;59.00;;;;;;5108652;28;20164;-38
2023/04/23 12:31:37;;;;;;;6.72;5.80;;;21.30;61.00;;;;;;5109744;27;20036;-38
2023/04/23 12:34:04;;;;;;;6.82;5.35;;;21.20;63.80;;;;;;5109347;28;20414;-38